Time;durP1;ratioP1;P1;durP2;ratioP2;P2;SDS_P1;SDS_P2;PMS_P1;PMS_P2;Temp;Humidity;BMP_temperature;BMP_pressure;BME280_temperature;BME280_humidity;BME280_pressure;Samples;Min_cycle;Max_cycle;Signal;HPM_P1;HPM_P2
2021/12/27 00:01:23;;;;;;;;;14.50;13.00;;;;;10.88;77.29;99356.09;5040957;28;46118;-60
2021/12/27 00:03:50;;;;;;;;;14.00;10.50;;;;;10.89;77.73;99361.19;5058885;28;45405;-61
2021/12/27 00:06:16;;;;;;;;;31.25;24.00;;;;;10.90;77.40;99356.75;5041561;28;45272;-61
2021/12/27 00:08:42;;;;;;;;;11.75;9.00;;;;;10.90;77.72;99354.94;5041022;28;45452;-60
2021/12/27 00:11:08;;;;;;;;;10.50;9.00;;;;;10.91;77.58;99350.50;5057373;28;47277;-61
2021/12/27 00:13:34;;;;;;;;;23.50;15.50;;;;;10.91;77.71;99342.63;5058821;28;45239;-61
2021/12/27 00:15:59;;;;;;;;;15.25;12.00;;;;;10.92;77.49;99337.19;5058833;28;45267;-63
2021/12/27 00:18:24;;;;;;;;;11.25;8.25;;;;;10.93;77.53;99332.78;5040191;28;62581;-62
2021/12/27 00:20:50;;;;;;;;;9.75;9.50;;;;;10.95;77.61;99333.44;5057707;28;70216;-61
2021/12/27 00:23:15;;;;;;;;;20.75;14.75;;;;;10.97;77.26;99339.34;5057737;28;59782;-60
2021/12/27 00:25:41;;;;;;;;;11.25;10.00;;;;;10.98;77.71;99328.63;5058745;28;45692;-62
2021/12/27 00:28:06;;;;;;;;;6.50;6.00;;;;;10.99;77.47;99335.53;5056727;28;45706;-61
2021/12/27 00:30:31;;;;;;;;;8.50;7.50;;;;;10.99;77.22;99332.91;5057689;28;73063;-60
2021/12/27 00:32:57;;;;;;;;;6.75;5.75;;;;;11.01;77.32;99324.03;5057727;28;66400;-61
2021/12/27 00:35:26;;;;;;;;;13.50;10.00;;;;;11.01;77.34;99308.25;5058379;28;51522;-61
2021/12/27 00:37:51;;;;;;;;;9.25;7.75;;;;;11.03;77.60;99315.00;5058662;28;45446;-61
2021/12/27 00:40:16;;;;;;;;;7.25;5.75;;;;;11.04;77.35;99311.38;5057949;28;58318;-61
2021/12/27 00:42:42;;;;;;;;;8.75;6.25;;;;;11.05;77.52;99307.78;5040515;28;45437;-62
2021/12/27 00:45:08;;;;;;;;;5.00;5.00;;;;;11.05;77.04;99306.94;5058559;28;45395;-60
2021/12/27 00:47:33;;;;;;;;;7.00;5.00;;;;;11.06;77.35;99306.78;5058468;28;45641;-61
2021/12/27 00:49:59;;;;;;;;;7.00;5.00;;;;;11.06;77.46;99303.31;5057576;28;65529;-60
2021/12/27 00:52:24;;;;;;;;;6.00;5.00;;;;;11.07;77.26;99305.78;5058336;28;45348;-61
2021/12/27 00:54:49;;;;;;;;;8.00;6.50;;;;;11.07;77.43;99308.44;5058504;28;45218;-61
2021/12/27 00:57:15;;;;;;;;;8.00;5.00;;;;;11.07;77.08;99316.31;5057619;28;63616;-61
2021/12/27 00:59:40;;;;;;;;;4.50;4.50;;;;;11.08;77.10;99317.94;5039323;28;69243;-61
2021/12/27 01:02:06;;;;;;;;;7.75;4.25;;;;;11.11;77.36;99319.41;5056896;28;45224;-60
2021/12/27 01:04:31;;;;;;;;;4.25;4.25;;;;;11.11;77.34;99308.91;5057336;28;68287;-59
2021/12/27 01:06:56;;;;;;;;;4.00;4.00;;;;;11.10;77.11;99308.09;5039150;28;62891;-61
2021/12/27 01:12:49;;;;;;;;;5.00;5.00;;;;;11.10;77.44;99302.81;5042889;28;45762;-60
2021/12/27 01:17:44;;;;;;;;;9.75;6.00;;;;;11.12;77.41;99298.22;5058214;28;45494;-62
2021/12/27 01:20:11;;;;;;;;;6.75;6.00;;;;;11.12;77.06;99292.97;5039803;28;46182;-62
2021/12/27 01:22:38;;;;;;;;;10.25;6.00;;;;;11.13;77.00;99294.56;5056558;28;45374;-62
2021/12/27 01:25:05;;;;;;;;;6.50;4.00;;;;;11.12;77.16;99294.75;5055937;28;45482;-61
2021/12/27 01:27:31;;;;;;;;;6.00;4.50;;;;;11.13;76.95;99291.94;5057712;28;45305;-61
2021/12/27 01:29:56;;;;;;;;;5.00;5.00;;;;;11.13;77.30;99286.69;5057638;28;45452;-61
2021/12/27 01:32:24;;;;;;;;;5.00;4.25;;;;;11.13;77.33;99285.88;5057700;28;45427;-60
2021/12/27 01:34:50;;;;;;;;;5.50;4.00;;;;;11.12;76.91;99282.44;5056644;28;45274;-62
2021/12/27 01:37:18;;;;;;;;;6.00;5.00;;;;;11.13;76.68;99281.44;5056966;28;45747;-60
2021/12/27 01:39:43;;;;;;;;;5.50;5.25;;;;;11.11;77.30;99280.81;5039929;28;45622;-62
2021/12/27 01:42:08;;;;;;;;;6.00;5.00;;;;;11.11;76.84;99278.19;5057441;28;48152;-60
2021/12/27 01:44:34;;;;;;;;;4.50;3.25;;;;;11.12;77.23;99276.34;5056917;28;62008;-63
2021/12/27 01:47:00;;;;;;;;;10.00;5.25;;;;;11.10;77.17;99268.66;5057526;28;45536;-60
2021/12/27 01:49:25;;;;;;;;;5.25;4.75;;;;;11.11;76.99;99266.84;5057335;28;46086;-63
2021/12/27 01:51:51;;;;;;;;;6.50;4.50;;;;;11.10;77.30;99267.81;5038026;28;66424;-61
2021/12/27 01:54:16;;;;;;;;;9.25;4.75;;;;;11.11;76.92;99279.97;5038537;28;64753;-60
2021/12/27 01:56:42;;;;;;;;;7.00;3.75;;;;;11.10;77.10;99266.03;5057615;28;45269;-62
2021/12/27 01:59:07;;;;;;;;;5.50;4.00;;;;;11.11;77.31;99270.28;5056311;28;74360;-60
2021/12/27 02:01:32;;;;;;;;;4.50;3.25;;;;;11.12;77.05;99268.47;5056457;28;68862;-61
2021/12/27 02:03:58;;;;;;;;;4.50;4.00;;;;;11.13;76.74;99262.22;5056949;28;45639;-60
2021/12/27 02:06:25;;;;;;;;;4.00;4.00;;;;;11.12;77.14;99265.84;5057401;28;45568;-61
2021/12/27 02:08:51;;;;;;;;;4.00;4.00;;;;;11.12;77.01;99263.22;5057087;28;46543;-61
2021/12/27 02:11:16;;;;;;;;;6.25;4.00;;;;;11.12;76.88;99263.22;5039146;28;45294;-63
2021/12/27 02:13:44;;;;;;;;;3.25;3.25;;;;;11.11;77.09;99259.78;5057093;28;45254;-60
2021/12/27 02:16:10;;;;;;;;;5.25;5.00;;;;;11.13;77.15;99268.28;5057103;28;45324;-61
2021/12/27 02:18:37;;;;;;;;;5.00;3.50;;;;;11.14;77.24;99263.88;5039006;28;45565;-60
2021/12/27 02:21:03;;;;;;;;;5.25;4.50;;;;;11.15;76.71;99265.50;5038591;28;45497;-60
2021/12/27 02:23:28;;;;;;;;;5.75;4.25;;;;;11.13;77.11;99254.34;5057065;28;45451;-64
2021/12/27 02:25:53;;;;;;;;;3.50;3.50;;;;;11.16;77.34;99261.06;5056357;28;59935;-61
2021/12/27 02:28:19;;;;;;;;;7.25;3.50;;;;;11.16;76.89;99253.16;5055774;28;67294;-62
2021/12/27 02:30:45;;;;;;;;;2.50;2.50;;;;;11.17;77.48;99253.00;5056845;28;45364;-61
2021/12/27 02:33:10;;;;;;;;;2.75;2.75;;;;;11.18;77.09;99256.44;5038964;28;45404;-60
2021/12/27 02:35:47;;;;;;;;;4.50;3.00;;;;;11.16;77.08;99256.63;5056907;28;45300;-61
2021/12/27 02:38:18;;;;;;;;;3.00;3.00;;;;;11.16;77.07;99250.53;5056870;28;45263;-61
2021/12/27 02:40:43;;;;;;;;;5.75;5.00;;;;;11.15;77.28;99241.84;5056666;28;45805;-62
2021/12/27 02:43:10;;;;;;;;;3.75;3.25;;;;;11.16;77.40;99250.53;5037877;28;59890;-61
2021/12/27 02:45:43;;;;;;;;;4.00;4.00;;;;;11.16;77.05;99242.66;5039006;28;45270;-62
2021/12/27 02:48:09;;;;;;;;;5.00;3.00;;;;;11.16;77.33;99251.38;5056431;28;46660;-61
2021/12/27 02:50:35;;;;;;;;;4.00;4.00;;;;;11.15;77.49;99239.22;5038613;28;45241;-60
2021/12/27 02:53:00;;;;;;;;;3.00;3.00;;;;;11.14;77.59;99242.84;5056683;28;45241;-60
2021/12/27 02:55:26;;;;;;;;;8.50;4.50;;;;;11.14;77.01;99250.72;5021953;28;45721;-64
2021/12/27 02:57:51;;;;;;;;;5.00;3.50;;;;;11.14;76.96;99248.91;5056436;28;46066;-62
2021/12/27 03:00:27;;;;;;;;;5.50;3.75;;;;;11.16;77.17;99238.22;5055466;28;72394;-60
2021/12/27 03:02:52;;;;;;;;;4.00;4.00;;;;;11.13;77.11;99234.09;5006208;28;45314;-65
2021/12/27 03:05:18;;;;;;;;;3.25;3.00;;;;;11.12;77.33;99222.00;5056551;28;45182;-60
2021/12/27 03:07:44;;;;;;;;;3.50;2.75;;;;;11.11;77.13;99215.09;5056311;28;45637;-62
2021/12/27 03:10:11;;;;;;;;;5.00;3.50;;;;;11.12;77.33;99219.34;5056299;28;45368;-63
2021/12/27 03:12:38;;;;;;;;;4.50;4.00;;;;;11.11;76.87;99222.97;5056492;28;45394;-63
2021/12/27 03:15:07;;;;;;;;;4.25;3.50;;;;;11.12;77.16;99221.16;5038640;28;45763;-63
2021/12/27 03:17:35;;;;;;;;;5.00;4.00;;;;;11.11;77.30;99215.09;5056145;28;45440;-64
2021/12/27 03:20:02;;;;;;;;;6.75;3.50;;;;;11.12;77.19;99221.16;5021982;28;45837;-63
2021/12/27 03:22:28;;;;;;;;;5.00;5.00;;;;;11.12;76.76;99219.34;5056269;28;45316;-62
2021/12/27 03:24:53;;;;;;;;;4.75;2.25;;;;;11.11;76.70;99222.97;5056166;28;45518;-63
2021/12/27 03:27:18;;;;;;;;;5.00;3.25;;;;;11.12;77.08;99218.53;5055109;28;66286;-64
2021/12/27 03:29:44;;;;;;;;;4.00;3.25;;;;;11.10;76.53;99215.25;5055157;28;63232;-63
2021/12/27 03:32:09;;;;;;;;;7.00;4.00;;;;;11.10;76.47;99221.34;5056094;28;45368;-64
2021/12/27 03:34:41;;;;;;;;;3.50;3.00;;;;;11.07;76.80;99207.69;5056132;28;45356;-64
2021/12/27 03:37:07;;;;;;;;;4.00;3.00;;;;;11.08;76.89;99212.81;5038823;28;45444;-63
2021/12/27 03:39:32;;;;;;;;;5.25;4.00;;;;;11.09;76.83;99203.09;5055864;28;45375;-64
2021/12/27 03:41:57;;;;;;;;;6.00;3.25;;;;;11.08;76.84;99201.47;5055096;28;66141;-64
2021/12/27 03:44:23;;;;;;;;;4.00;4.00;;;;;11.07;76.80;99197.19;5037222;28;65146;-63
2021/12/27 03:46:48;;;;;;;;;5.00;2.00;;;;;11.07;76.49;99203.28;5054906;28;72893;-63
2021/12/27 03:49:13;;;;;;;;;6.25;5.00;;;;;11.08;76.44;99189.16;5055334;28;59050;-62
2021/12/27 03:51:43;;;;;;;;;6.25;3.00;;;;;11.07;76.84;99191.94;5055246;28;59203;-63
2021/12/27 03:54:08;;;;;;;;;6.00;3.75;;;;;11.05;76.36;99191.28;5037881;28;45605;-63
2021/12/27 03:56:34;;;;;;;;;3.75;3.00;;;;;11.06;76.97;99183.25;5055826;28;45335;-63
2021/12/27 03:59:19;;;;;;;;;5.75;3.00;;;;;11.06;76.67;99187.66;5055121;28;64526;-62
2021/12/27 04:01:44;;;;;;;;;2.25;2.25;;;;;11.06;76.69;99185.88;5055684;28;45334;-63
2021/12/27 04:04:10;;;;;;;;;4.25;2.75;;;;;11.07;76.62;99184.03;5037268;28;58553;-64
2021/12/27 04:06:35;;;;;;;;;4.00;4.00;;;;;11.08;76.35;99176.00;5036823;28;71395;-64
2021/12/27 04:09:00;;;;;;;;;3.25;3.25;;;;;11.08;76.75;99176.00;5036883;28;66571;-63
2021/12/27 04:11:26;;;;;;;;;4.50;3.50;;;;;11.07;76.54;99163.84;5055174;28;58378;-62
2021/12/27 04:13:51;;;;;;;;;5.25;3.25;;;;;11.08;76.64;99170.75;5056104;28;45266;-64
2021/12/27 04:16:17;;;;;;;;;3.50;3.50;;;;;11.09;76.66;99161.03;5058812;28;47790;-64
2021/12/27 04:18:42;;;;;;;;;6.00;3.00;;;;;11.07;76.75;99163.84;5058154;28;68715;-62
2021/12/27 04:21:07;;;;;;;;;7.75;4.00;;;;;11.06;76.26;99162.22;5058320;28;63550;-64
2021/12/27 04:23:33;;;;;;;;;7.25;4.00;;;;;11.09;76.45;99158.41;5058199;28;61020;-63
2021/12/27 04:25:58;;;;;;;;;5.75;4.00;;;;;11.07;76.83;99163.03;5058058;28;68017;-62
2021/12/27 04:28:24;;;;;;;;;8.25;4.00;;;;;11.07;76.34;99155.13;5057991;28;60496;-59
2021/12/27 04:30:49;;;;;;;;;5.25;4.25;;;;;11.07;76.69;99157.75;5058836;28;45491;-62
2021/12/27 04:33:16;;;;;;;;;5.75;4.75;;;;;11.08;76.49;99159.41;5058878;28;45645;-63
2021/12/27 04:35:41;;;;;;;;;3.00;3.00;;;;;11.08;76.18;99154.97;5058064;28;67562;-62
2021/12/27 04:38:07;;;;;;;;;3.75;3.00;;;;;11.07;76.59;99165.66;5058834;28;45312;-62
2021/12/27 04:40:34;;;;;;;;;5.00;3.00;;;;;11.07;76.64;99160.38;5058836;28;45613;-62
2021/12/27 04:43:20;;;;;;;;;5.50;3.25;;;;;11.07;76.75;99157.75;5058765;28;45454;-62
2021/12/27 04:45:46;;;;;;;;;7.75;4.25;;;;;11.07;76.69;99163.03;5058546;28;46339;-62
2021/12/27 04:48:11;;;;;;;;;4.00;4.00;;;;;11.08;76.78;99169.91;5040519;28;47284;-64
2021/12/27 04:50:37;;;;;;;;;5.50;3.50;;;;;11.07;76.46;99169.09;5058529;28;45733;-63
2021/12/27 04:53:03;;;;;;;;;5.50;4.50;;;;;11.08;76.73;99169.91;5058556;28;45560;-63
2021/12/27 04:55:30;;;;;;;;;7.25;4.75;;;;;11.08;76.56;99165.50;5058238;28;51782;-63
2021/12/27 04:57:56;;;;;;;;;5.25;3.50;;;;;11.09;76.10;99177.63;5058472;28;45243;-63
2021/12/27 05:00:22;;;;;;;;;6.25;4.00;;;;;11.10;76.67;99173.19;5040773;28;45329;-62
2021/12/27 05:02:47;;;;;;;;;6.00;4.00;;;;;11.08;76.60;99176.00;5058318;28;45546;-62
2021/12/27 05:05:12;;;;;;;;;7.75;4.00;;;;;11.09;76.60;99180.28;5040308;28;45429;-64
2021/12/27 05:07:38;;;;;;;;;5.50;5.50;;;;;11.08;76.05;99183.06;5039934;28;55266;-62
2021/12/27 05:10:04;;;;;;;;;5.50;5.00;;;;;11.08;76.10;99185.69;5057914;28;56423;-63
2021/12/27 05:12:29;;;;;;;;;5.00;3.50;;;;;11.07;76.58;99189.31;5058385;28;45356;-63
2021/12/27 05:14:55;;;;;;;;;8.00;4.75;;;;;11.06;76.66;99188.50;5057197;28;71202;-63
2021/12/27 05:17:20;;;;;;;;;6.50;4.00;;;;;11.06;76.42;99188.50;5057234;28;68797;-64
2021/12/27 05:19:45;;;;;;;;;5.50;3.50;;;;;11.05;76.35;99192.13;5057399;28;64784;-64
2021/12/27 05:22:11;;;;;;;;;8.25;4.25;;;;;11.05;76.55;99194.75;5057119;28;66688;-63
2021/12/27 05:24:36;;;;;;;;;9.50;4.00;;;;;11.05;76.49;99192.13;5039955;28;46149;-62
2021/12/27 05:27:02;;;;;;;;;9.00;4.75;;;;;11.06;76.59;99193.75;5056757;28;45398;-63
2021/12/27 05:29:27;;;;;;;;;6.50;5.00;;;;;11.04;76.28;99193.09;5058114;28;45352;-63
2021/12/27 05:31:53;;;;;;;;;7.00;4.25;;;;;11.04;76.13;99187.84;5057966;28;45512;-64
2021/12/27 05:34:18;;;;;;;;;7.50;3.50;;;;;11.05;76.28;99183.41;5039680;28;46057;-62
2021/12/27 05:36:44;;;;;;;;;7.00;6.00;;;;;11.05;76.26;99186.03;5057859;28;45313;-63
2021/12/27 05:39:10;;;;;;;;;7.50;4.75;;;;;11.05;76.30;99183.41;5039908;28;45428;-62
2021/12/27 05:41:36;;;;;;;;;9.75;4.50;;;;;11.03;75.66;99177.50;5057951;28;45266;-62
2021/12/27 05:44:01;;;;;;;;;7.50;5.00;;;;;11.02;75.83;99181.13;5039645;28;45456;-64
2021/12/27 05:46:26;;;;;;;;;7.00;5.00;;;;;11.01;75.96;99174.22;5057378;28;45443;-62
2021/12/27 05:48:52;;;;;;;;;7.50;4.75;;;;;10.99;76.36;99171.78;5056812;28;64495;-64
2021/12/27 05:51:17;;;;;;;;;6.75;5.00;;;;;10.98;76.30;99165.69;5057175;28;52147;-63
2021/12/27 05:53:43;;;;;;;;;6.25;5.00;;;;;10.97;76.34;99155.38;5056684;28;70494;-62
2021/12/27 05:56:08;;;;;;;;;7.75;5.00;;;;;10.96;76.32;99137.97;5057571;28;45198;-62
2021/12/27 05:58:33;;;;;;;;;8.75;5.25;;;;;10.95;76.00;99134.50;5056854;28;61252;-63
2021/12/27 06:00:59;;;;;;;;;7.00;4.50;;;;;10.93;76.18;99117.28;5057622;28;45309;-61
2021/12/27 06:03:24;;;;;;;;;7.75;5.75;;;;;10.91;76.22;99114.00;5056647;28;62368;-62
2021/12/27 06:05:50;;;;;;;;;6.50;4.00;;;;;10.90;76.28;99115.78;5056380;28;72342;-63
2021/12/27 06:08:15;;;;;;;;;6.00;4.75;;;;;10.88;76.41;99102.00;5056790;28;59957;-62
2021/12/27 06:10:40;;;;;;;;;6.00;5.00;;;;;10.86;76.33;99101.41;5039427;28;45400;-61
2021/12/27 06:13:06;;;;;;;;;6.50;5.50;;;;;10.84;76.01;99091.03;5038601;28;61955;-62
2021/12/27 06:15:31;;;;;;;;;7.75;5.00;;;;;10.83;76.63;99084.16;5056354;28;71414;-63
2021/12/27 06:17:56;;;;;;;;;9.00;6.75;;;;;10.81;76.53;99070.38;5057184;28;45418;-62
2021/12/27 06:20:22;;;;;;;;;7.25;6.00;;;;;10.81;76.49;99067.75;5056326;28;64695;-63
2021/12/27 06:22:55;;;;;;;;;7.50;6.00;;;;;10.80;75.76;99057.41;5056913;28;46347;-62
2021/12/27 06:25:21;;;;;;;;;10.50;6.25;;;;;10.75;76.14;99044.78;5057023;28;45319;-62
2021/12/27 06:27:46;;;;;;;;;7.75;7.00;;;;;10.74;76.28;99042.34;5056689;28;45358;-63
2021/12/27 06:30:12;;;;;;;;;6.50;5.25;;;;;10.71;75.89;99027.75;5038352;28;64190;-63
2021/12/27 06:32:38;;;;;;;;;7.00;6.25;;;;;10.70;76.18;99028.72;5038988;28;45344;-63
2021/12/27 06:35:04;;;;;;;;;12.50;7.00;;;;;10.68;76.37;99014.94;5056035;28;64668;-62
2021/12/27 06:37:29;;;;;;;;;8.00;7.50;;;;;10.66;76.27;99009.06;5056649;28;45313;-61
2021/12/27 06:39:55;;;;;;;;;8.25;7.00;;;;;10.64;76.39;98990.03;5056490;28;45244;-63
2021/12/27 06:42:20;;;;;;;;;7.75;6.00;;;;;10.64;76.51;98990.03;5056515;28;45280;-62
2021/12/27 06:44:46;;;;;;;;;10.00;7.00;;;;;10.63;76.42;98986.59;5056506;28;49412;-63
2021/12/27 06:47:11;;;;;;;;;9.75;8.00;;;;;10.62;76.06;98987.59;5056015;28;57039;-63
2021/12/27 06:49:37;;;;;;;;;9.50;6.75;;;;;10.61;76.13;98980.69;5037939;28;61419;-63
2021/12/27 06:52:03;;;;;;;;;7.00;5.00;;;;;10.58;76.31;98970.53;5056291;28;45766;-64
2021/12/27 06:54:28;;;;;;;;;6.00;6.00;;;;;10.56;76.29;98963.84;5056416;28;45363;-63
2021/12/27 06:56:54;;;;;;;;;9.00;6.50;;;;;10.56;76.41;98967.25;5055877;28;60141;-62
2021/12/27 06:59:20;;;;;;;;;10.00;5.75;;;;;10.55;76.27;98963.00;5056548;28;45518;-63
2021/12/27 07:01:45;;;;;;;;;5.50;5.50;;;;;10.53;75.87;98967.63;5055188;28;74595;-62
2021/12/27 07:04:10;;;;;;;;;7.25;5.75;;;;;10.51;76.35;98969.59;5055597;28;64451;-63
2021/12/27 07:06:36;;;;;;;;;11.25;8.00;;;;;10.50;75.61;98966.16;5055700;28;60732;-62
2021/12/27 07:09:03;;;;;;;;;9.25;4.75;;;;;10.47;75.77;98969.13;5056191;28;51741;-63
2021/12/27 07:11:29;;;;;;;;;7.00;6.00;;;;;10.46;76.07;98964.03;5054925;28;46278;-62
2021/12/27 07:13:54;;;;;;;;;5.25;5.25;;;;;10.44;76.08;98958.97;5056464;28;45254;-62
2021/12/27 07:16:19;;;;;;;;;7.50;5.25;;;;;10.41;75.75;98959.31;5055275;28;64991;-62
2021/12/27 07:18:45;;;;;;;;;5.00;5.00;;;;;10.39;75.66;98962.13;5038006;28;45264;-63
2021/12/27 07:21:10;;;;;;;;;13.75;9.25;;;;;10.38;75.68;98960.44;5055081;28;64936;-62
2021/12/27 07:23:35;;;;;;;;;21.25;16.25;;;;;10.38;75.56;98967.53;5055187;28;65130;-61
2021/12/27 07:26:01;;;;;;;;;11.50;10.00;;;;;10.38;75.91;98972.78;5055872;28;46727;-63
2021/12/27 07:28:26;;;;;;;;;7.00;7.00;;;;;10.37;76.01;98971.13;5055127;28;64122;-63
2021/12/27 07:30:52;;;;;;;;;6.75;6.00;;;;;10.37;75.50;98971.94;5055167;28;69379;-63
2021/12/27 07:33:17;;;;;;;;;4.75;4.00;;;;;10.36;75.60;98975.56;5055913;28;45285;-63
2021/12/27 07:35:42;;;;;;;;;7.50;5.25;;;;;10.36;75.18;98966.88;5038292;28;45289;-63
2021/12/27 07:38:08;;;;;;;;;6.00;5.00;;;;;10.37;75.03;98963.25;5055918;28;45225;-62
2021/12/27 07:40:33;;;;;;;;;6.50;5.00;;;;;10.37;75.07;98964.06;5055759;28;46590;-63
2021/12/27 07:42:59;;;;;;;;;4.50;4.50;;;;;10.36;75.07;98964.25;5055000;28;65054;-63
2021/12/27 07:45:24;;;;;;;;;6.50;6.25;;;;;10.35;75.19;98963.41;5037829;28;45858;-63
2021/12/27 07:47:49;;;;;;;;;4.50;4.00;;;;;10.36;74.67;98972.94;5055120;28;60802;-62
2021/12/27 07:50:15;;;;;;;;;8.00;3.00;;;;;10.34;74.24;98974.91;5058253;28;45830;-63
2021/12/27 07:52:40;;;;;;;;;7.00;3.50;;;;;10.35;74.15;98978.38;5058578;28;63602;-63
2021/12/27 07:55:06;;;;;;;;;9.75;3.75;;;;;10.34;74.23;98974.91;5059313;28;45740;-64
2021/12/27 07:57:31;;;;;;;;;4.75;3.75;;;;;10.33;74.59;98978.53;5059249;28;45410;-62
2021/12/27 07:59:57;;;;;;;;;4.00;3.00;;;;;10.33;74.25;98977.72;5040437;28;69843;-62
2021/12/27 08:02:22;;;;;;;;;3.00;3.00;;;;;10.34;74.36;98974.09;5058803;28;52973;-63
2021/12/27 08:04:47;;;;;;;;;4.00;3.00;;;;;10.33;74.16;98978.53;5041127;28;45442;-62
2021/12/27 08:07:13;;;;;;;;;6.00;3.75;;;;;10.33;74.46;98977.72;5058308;28;63977;-62
2021/12/27 08:09:38;;;;;;;;;3.25;3.00;;;;;10.33;74.29;98975.09;5039890;28;69672;-62
2021/12/27 08:12:04;;;;;;;;;3.50;3.00;;;;;10.32;74.46;98976.91;5024468;28;45408;-61
2021/12/27 08:14:30;;;;;;;;;3.25;2.00;;;;;10.33;74.36;98988.22;5058757;28;45182;-65
2021/12/27 08:16:55;;;;;;;;;5.50;2.25;;;;;10.31;74.27;98972.66;5057740;28;45626;-61
2021/12/27 08:19:21;;;;;;;;;5.00;4.25;;;;;10.30;74.48;98972.81;5057907;28;65770;-63
2021/12/27 08:21:46;;;;;;;;;4.25;4.00;;;;;10.29;74.26;98965.94;5058206;28;45284;-62
2021/12/27 08:24:11;;;;;;;;;3.25;3.25;;;;;10.27;74.33;98963.50;5058459;28;45295;-62
2021/12/27 08:26:37;;;;;;;;;3.25;2.50;;;;;10.27;74.14;98963.50;5057087;28;45457;-62
2021/12/27 08:29:05;;;;;;;;;4.50;3.50;;;;;10.27;74.30;98967.91;5058104;28;45637;-62
2021/12/27 08:31:30;;;;;;;;;5.50;3.00;;;;;10.24;74.25;98969.09;5040623;28;45786;-62
2021/12/27 08:33:56;;;;;;;;;3.50;3.00;;;;;10.22;73.83;98963.19;5057705;28;63965;-64
2021/12/27 08:36:21;;;;;;;;;3.75;3.75;;;;;10.19;74.15;98953.84;5058649;28;45576;-63
2021/12/27 08:38:48;;;;;;;;;3.00;3.00;;;;;10.16;74.43;98946.31;5039603;28;69423;-63
2021/12/27 08:41:14;;;;;;;;;5.25;3.75;;;;;10.17;74.17;98955.00;5058329;28;45797;-63
2021/12/27 08:43:40;;;;;;;;;6.00;4.75;;;;;10.17;74.18;98950.56;5058484;28;45384;-64
2021/12/27 08:46:05;;;;;;;;;6.25;4.00;;;;;10.18;73.92;98956.66;5058202;28;45308;-62
2021/12/27 08:48:30;;;;;;;;;6.75;4.00;;;;;10.13;74.01;98944.03;5058177;28;47189;-63
2021/12/27 08:50:56;;;;;;;;;5.25;4.00;;;;;10.14;73.88;98952.72;5039688;28;65872;-63
2021/12/27 08:53:21;;;;;;;;;5.25;4.00;;;;;10.13;74.46;98956.34;5057641;28;62476;-63
2021/12/27 08:55:47;;;;;;;;;5.00;4.00;;;;;10.12;74.06;98942.38;5058012;28;48832;-62
2021/12/27 08:58:12;;;;;;;;;6.00;3.00;;;;;10.11;74.05;98943.38;5058018;28;50556;-62
2021/12/27 09:00:37;;;;;;;;;5.50;4.75;;;;;10.11;74.33;98943.38;5057882;28;51366;-63
2021/12/27 09:03:03;;;;;;;;;7.25;6.00;;;;;10.12;74.11;98942.38;5057778;28;45602;-63
2021/12/27 09:05:28;;;;;;;;;6.00;5.00;;;;;10.11;73.98;98938.13;5057207;28;69213;-62
2021/12/27 09:07:53;;;;;;;;;4.00;4.00;;;;;10.11;74.18;98940.75;5057923;28;53131;-62
2021/12/27 09:10:19;;;;;;;;;5.75;4.75;;;;;10.11;74.46;98927.63;5058004;28;46595;-63
2021/12/27 09:12:44;;;;;;;;;5.25;5.25;;;;;10.08;74.54;98933.22;5057631;28;55239;-63
2021/12/27 09:15:10;;;;;;;;;5.25;4.75;;;;;10.08;74.78;98927.97;5040248;28;45592;-62
2021/12/27 09:17:35;;;;;;;;;3.75;3.75;;;;;10.08;74.59;98935.84;5057861;28;45450;-63
2021/12/27 09:20:01;;;;;;;;;4.00;4.00;;;;;10.07;74.52;98921.91;5057806;28;46688;-63
2021/12/27 09:22:26;;;;;;;;;8.00;6.25;;;;;10.06;74.41;98927.34;5057864;28;45299;-62
2021/12/27 09:24:51;;;;;;;;;6.00;4.25;;;;;10.06;74.71;98932.59;5056972;28;65568;-64
2021/12/27 09:27:17;;;;;;;;;7.25;6.00;;;;;10.06;75.05;98946.53;5057582;28;45402;-62
2021/12/27 09:29:43;;;;;;;;;9.25;5.75;;;;;10.07;74.99;98936.84;5039701;28;45282;-63
2021/12/27 09:32:11;;;;;;;;;5.00;5.00;;;;;10.03;74.85;98927.69;5039771;28;45311;-62
2021/12/27 09:34:37;;;;;;;;;8.00;7.50;;;;;10.04;74.70;98927.50;5057807;28;45212;-63
2021/12/27 09:37:02;;;;;;;;;5.25;5.25;;;;;10.03;75.01;98919.81;5057712;28;46442;-63
2021/12/27 09:39:28;;;;;;;;;4.25;4.00;;;;;10.04;74.95;98919.63;5057565;28;45287;-63
2021/12/27 09:41:53;;;;;;;;;5.75;4.75;;;;;10.04;75.17;98919.63;5057679;28;45392;-62
2021/12/27 09:44:18;;;;;;;;;3.75;2.00;;;;;10.02;75.06;98913.75;5056968;28;59345;-63
2021/12/27 09:46:44;;;;;;;;;6.75;5.75;;;;;10.02;75.01;98920.81;5038510;28;68354;-62
2021/12/27 09:49:12;;;;;;;;;8.25;5.75;;;;;9.99;75.13;98905.41;5057433;28;45418;-63
2021/12/27 09:51:37;;;;;;;;;6.75;5.25;;;;;9.98;75.02;98911.66;5039682;28;45381;-62
2021/12/27 09:54:04;;;;;;;;;6.25;6.00;;;;;9.96;75.31;98898.69;5022974;28;45401;-63
2021/12/27 09:56:29;;;;;;;;;5.75;3.75;;;;;9.94;75.32;98896.25;5057074;28;46383;-62
2021/12/27 09:58:54;;;;;;;;;5.00;4.00;;;;;9.94;75.66;98891.00;5056774;28;58108;-63
2021/12/27 10:01:20;;;;;;;;;8.75;5.25;;;;;9.95;75.61;98883.94;5056552;28;60816;-63
2021/12/27 10:03:50;;;;;;;;;5.25;4.00;;;;;9.95;75.78;98882.16;5057229;28;45379;-62
2021/12/27 10:06:17;;;;;;;;;8.50;7.00;;;;;9.97;75.41;98879.34;5056848;28;46125;-63
2021/12/27 10:08:44;;;;;;;;;8.50;6.75;;;;;9.96;75.61;98882.94;5054913;28;45943;-63
2021/12/27 10:11:17;;;;;;;;;4.50;4.50;;;;;9.95;75.31;98882.16;5056882;28;45316;-62
2021/12/27 10:13:59;;;;;;;;;7.75;7.75;;;;;9.95;75.83;98897.88;5056697;28;45315;-64
2021/12/27 10:16:26;;;;;;;;;4.00;4.00;;;;;9.95;75.28;98886.56;5039567;28;45400;-62
2021/12/27 10:18:59;;;;;;;;;7.75;6.00;;;;;9.94;75.85;98898.88;5039002;28;45400;-63
2021/12/27 10:21:25;;;;;;;;;3.00;3.00;;;;;9.96;75.38;98893.44;5056795;28;45372;-62
2021/12/27 10:24:01;;;;;;;;;8.00;6.75;;;;;9.94;75.76;98896.25;5056594;28;45599;-62
2021/12/27 10:26:26;;;;;;;;;11.00;6.75;;;;;9.96;75.61;98901.31;5038941;28;46491;-63
2021/12/27 10:29:11;;;;;;;;;7.75;7.75;;;;;9.94;75.74;98904.13;5055600;28;73152;-62
2021/12/27 10:32:04;;;;;;;;;9.50;8.00;;;;;9.92;75.66;98903.47;5023217;28;45420;-62
2021/12/27 10:34:50;;;;;;;;;4.50;4.00;;;;;9.90;75.57;98889.72;5037305;28;45296;-63
2021/12/27 10:37:19;;;;;;;;;11.75;8.00;;;;;9.93;75.51;98899.03;5056326;28;45469;-62
2021/12/27 10:39:57;;;;;;;;;14.50;14.50;;;;;9.93;75.91;98902.50;5056711;28;45394;-63
2021/12/27 10:42:27;;;;;;;;;11.25;6.00;;;;;9.94;76.13;98896.25;5056795;28;45308;-63
2021/12/27 10:44:58;;;;;;;;;6.25;6.00;;;;;9.95;76.22;98897.06;5056521;28;45356;-63
2021/12/27 10:47:27;;;;;;;;;12.75;10.00;;;;;9.94;76.24;98891.00;5056274;28;45653;-63
2021/12/27 10:49:53;;;;;;;;;22.50;20.25;;;;;9.96;76.28;98885.56;5038415;28;45404;-64
2021/12/27 10:52:19;;;;;;;;;10.75;9.25;;;;;9.96;76.30;98885.56;5038634;28;45309;-63
2021/12/27 10:54:44;;;;;;;;;12.75;9.00;;;;;9.97;76.09;98886.41;5037777;28;48978;-63
2021/12/27 10:57:09;;;;;;;;;17.00;15.50;;;;;9.95;76.42;98883.94;5037994;28;45481;-63
2021/12/27 10:59:35;;;;;;;;;18.50;17.75;;;;;9.92;76.39;98885.13;5055479;28;64720;-64
2021/12/27 11:02:14;;;;;;;;;23.25;20.00;;;;;9.92;76.55;98882.50;5055494;28;66660;-62
2021/12/27 11:04:39;;;;;;;;;19.25;15.00;;;;;9.93;76.62;98876.25;5056462;28;45443;-62
2021/12/27 11:07:05;;;;;;;;;9.25;8.75;;;;;9.94;76.76;98883.13;5038236;28;46191;-64
2021/12/27 11:09:31;;;;;;;;;45.50;37.25;;;;;9.95;76.81;98884.78;5038194;28;45377;-61
2021/12/27 11:11:57;;;;;;;;;27.50;24.50;;;;;9.98;76.58;98890.66;5056222;28;45332;-62
2021/12/27 11:14:23;;;;;;;;;7.00;7.00;;;;;10.00;76.52;98889.50;5021615;28;45712;-62
2021/12/27 11:16:48;;;;;;;;;17.00;16.00;;;;;10.00;76.92;98892.13;5055111;28;69575;-62
2021/12/27 11:19:13;;;;;;;;;14.25;14.00;;;;;10.03;76.73;98890.97;5020379;28;70516;-62
2021/12/27 11:21:42;;;;;;;;;16.00;13.50;;;;;10.04;76.88;98892.59;5020630;28;63867;-62
2021/12/27 11:24:07;;;;;;;;;7.00;6.25;;;;;10.07;76.56;98897.47;5056889;28;45386;-62
2021/12/27 11:26:34;;;;;;;;;7.50;6.00;;;;;10.08;76.99;98891.22;5041364;28;45395;-64
2021/12/27 11:29:17;;;;;;;;;8.75;6.25;;;;;10.09;77.05;98898.13;5059649;28;45845;-64
2021/12/27 11:32:09;;;;;;;;;22.75;19.25;;;;;10.13;76.71;98894.16;5059825;28;45478;-63
2021/12/27 11:34:55;;;;;;;;;16.50;15.25;;;;;10.16;76.74;98887.75;5041830;28;45305;-61